Time;durP1;ratioP1;P1;durP2;ratioP2;P2;SDS_P1;SDS_P2;PMS_P1;PMS_P2;Temp;Humidity;BMP_temperature;BMP_pressure;BME280_temperature;BME280_humidity;BME280_pressure;Samples;Min_cycle;Max_cycle;Signal;HPM_P1;HPM_P2
2021/08/31 00:00:39;;;;;;;17.67;11.27;;;16.70;93.00;;;;;;4993809;28;20054;-75
2021/08/31 00:03:05;;;;;;;18.30;12.63;;;16.70;93.00;;;;;;4993608;28;20031;-75
2021/08/31 00:05:34;;;;;;;16.58;12.25;;;16.70;93.00;;;;;;4993804;28;20022;-76
2021/08/31 00:07:59;;;;;;;21.17;14.30;;;16.70;93.10;;;;;;4993893;28;20031;-75
2021/08/31 00:10:25;;;;;;;17.77;12.98;;;16.70;93.20;;;;;;4994838;28;20034;-75
2021/08/31 00:12:50;;;;;;;26.50;13.93;;;16.70;93.40;;;;;;4993675;28;20502;-75
2021/08/31 00:15:17;;;;;;;24.85;14.30;;;16.70;93.30;;;;;;4994688;28;20062;-75
2021/08/31 00:17:43;;;;;;;22.65;13.18;;;16.70;93.60;;;;;;4994679;28;20133;-76
2021/08/31 00:20:10;;;;;;;19.27;13.82;;;16.60;93.30;;;;;;4993336;28;20027;-75
2021/08/31 00:22:36;;;;;;;18.10;13.07;;;16.60;93.20;;;;;;4993608;28;20549;-75
2021/08/31 00:25:04;;;;;;;18.08;13.45;;;16.60;93.20;;;;;;5009530;28;20023;-75
2021/08/31 00:27:30;;;;;;;18.40;12.98;;;16.60;93.30;;;;;;4994635;28;20061;-75
2021/08/31 00:29:55;;;;;;;21.42;13.35;;;16.60;93.30;;;;;;4993551;28;20062;-75
2021/08/31 00:32:21;;;;;;;19.83;12.60;;;16.50;93.30;;;;;;4994473;28;20030;-75
2021/08/31 00:34:47;;;;;;;19.75;13.15;;;16.50;93.40;;;;;;4994927;28;20109;-75
2021/08/31 00:37:12;;;;;;;20.65;14.15;;;16.50;93.40;;;;;;4993473;28;20069;-75
2021/08/31 00:39:40;;;;;;;23.23;13.75;;;16.50;93.40;;;;;;4993257;28;20038;-75
2021/08/31 00:42:06;;;;;;;18.67;12.90;;;16.40;93.40;;;;;;4993785;28;20031;-75
2021/08/31 00:44:32;;;;;;;19.50;12.13;;;16.40;93.40;;;;;;4994383;28;20341;-75
2021/08/31 00:47:00;;;;;;;19.73;13.35;;;16.40;93.50;;;;;;5009384;28;20026;-75
2021/08/31 00:49:26;;;;;;;19.52;13.10;;;16.40;93.50;;;;;;5009114;28;20379;-76
2021/08/31 00:51:53;;;;;;;23.15;14.32;;;16.40;93.50;;;;;;4994276;28;20042;-75
2021/08/31 00:54:20;;;;;;;23.58;15.35;;;16.40;93.60;;;;;;4993017;28;20030;-75
2021/08/31 00:56:46;;;;;;;23.92;13.95;;;16.30;93.60;;;;;;4994140;28;20030;-75
2021/08/31 00:59:13;;;;;;;21.58;14.60;;;16.30;93.70;;;;;;4994184;28;20023;-75
2021/08/31 01:01:42;;;;;;;20.00;13.60;;;16.30;93.70;;;;;;4993978;28;20061;-75
2021/08/31 01:04:08;;;;;;;18.23;14.05;;;16.30;93.70;;;;;;4993027;28;20467;-75
2021/08/31 01:06:34;;;;;;;20.83;13.65;;;16.30;93.80;;;;;;5021825;28;20030;-75
2021/08/31 01:08:59;;;;;;;21.52;13.35;;;16.20;93.80;;;;;;5013696;28;20030;-75
2021/08/31 01:11:26;;;;;;;21.05;14.40;;;16.20;93.90;;;;;;5013271;28;20030;-75
2021/08/31 01:13:52;;;;;;;20.73;14.02;;;16.20;93.90;;;;;;5012237;28;20121;-75
2021/08/31 01:16:18;;;;;;;21.20;14.45;;;16.20;94.00;;;;;;5032176;28;20084;-75
2021/08/31 01:18:43;;;;;;;24.55;14.70;;;16.20;94.10;;;;;;5032630;28;20141;-75
2021/08/31 01:21:11;;;;;;;24.67;15.30;;;16.30;94.40;;;;;;5016343;28;20053;-75
2021/08/31 01:23:36;;;;;;;21.40;14.05;;;16.20;94.10;;;;;;5016485;28;20117;-75
2021/08/31 01:26:03;;;;;;;19.38;12.75;;;16.20;94.10;;;;;;5017296;28;20034;-74
2021/08/31 01:28:32;;;;;;;20.83;14.05;;;16.20;94.10;;;;;;5017517;28;20026;-75
2021/08/31 01:31:01;;;;;;;19.80;14.02;;;16.30;94.20;;;;;;5016154;28;20104;-74
2021/08/31 01:33:30;;;;;;;22.73;14.00;;;16.20;94.20;;;;;;4999908;28;20096;-75
2021/08/31 01:35:56;;;;;;;21.88;14.65;;;16.20;94.30;;;;;;5017745;28;20381;-75
2021/08/31 01:38:22;;;;;;;20.13;13.27;;;16.20;94.30;;;;;;5017538;28;20022;-75
2021/08/31 01:40:48;;;;;;;18.02;13.68;;;16.20;94.30;;;;;;5017135;28;20045;-75
2021/08/31 01:43:21;;;;;;;19.50;13.90;;;16.20;94.30;;;;;;5017567;28;20034;-75
2021/08/31 01:45:47;;;;;;;20.73;13.73;;;16.20;94.40;;;;;;5017312;28;20168;-75
2021/08/31 01:48:13;;;;;;;19.17;12.55;;;16.20;94.30;;;;;;5017000;28;20530;-75
2021/08/31 01:50:39;;;;;;;21.58;14.40;;;16.20;94.30;;;;;;5015738;28;20030;-75
2021/08/31 01:53:05;;;;;;;19.42;13.95;;;16.20;94.30;;;;;;5017415;28;20033;-75
2021/08/31 01:55:31;;;;;;;23.48;14.75;;;16.20;94.40;;;;;;5016977;28;20041;-75
2021/08/31 01:57:57;;;;;;;21.13;13.70;;;16.20;94.40;;;;;;4983302;28;20120;-75
2021/08/31 02:00:24;;;;;;;20.58;14.90;;;16.20;94.40;;;;;;5017012;28;20403;-75
2021/08/31 02:02:49;;;;;;;23.30;13.80;;;16.10;94.40;;;;;;5015736;28;20022;-75
2021/08/31 02:05:15;;;;;;;19.48;12.88;;;16.10;94.50;;;;;;4999259;28;20470;-75
2021/08/31 02:07:41;;;;;;;20.20;13.43;;;16.10;94.50;;;;;;5015790;28;20033;-75
2021/08/31 02:10:07;;;;;;;21.52;13.60;;;16.10;94.50;;;;;;5015542;28;20034;-75
2021/08/31 02:12:33;;;;;;;21.50;12.70;;;16.10;94.60;;;;;;5031844;28;20041;-75
2021/08/31 02:14:59;;;;;;;22.17;12.80;;;16.10;94.60;;;;;;5032138;28;20026;-75
2021/08/31 02:17:24;;;;;;;19.30;13.25;;;16.20;94.70;;;;;;5016442;28;20079;-75
2021/08/31 02:19:50;;;;;;;19.73;14.32;;;16.10;94.70;;;;;;5016526;28;20041;-75
2021/08/31 02:22:16;;;;;;;23.70;13.85;;;16.20;94.70;;;;;;5031632;28;20120;-75
2021/08/31 02:24:41;;;;;;;19.00;13.15;;;16.20;94.70;;;;;;5015239;28;20029;-75
2021/08/31 02:27:07;;;;;;;18.48;13.00;;;16.20;94.70;;;;;;5031377;28;20470;-75
2021/08/31 02:29:33;;;;;;;16.77;11.57;;;16.20;94.70;;;;;;5014961;28;20088;-76
2021/08/31 02:31:59;;;;;;;22.92;12.82;;;16.20;94.70;;;;;;5016452;28;20454;-75
2021/08/31 02:34:25;;;;;;;17.67;12.30;;;16.20;94.70;;;;;;5014944;28;20021;-75
2021/08/31 02:36:50;;;;;;;23.33;12.77;;;16.20;94.70;;;;;;5014966;28;20030;-75
2021/08/31 02:39:16;;;;;;;22.15;12.18;;;16.20;94.70;;;;;;4998327;28;20034;-75
2021/08/31 02:41:42;;;;;;;22.92;11.43;;;16.20;94.70;;;;;;5016068;28;20387;-75
2021/08/31 02:44:08;;;;;;;21.40;12.55;;;16.20;94.70;;;;;;5016366;28;20037;-75
2021/08/31 02:46:34;;;;;;;20.45;12.80;;;16.20;94.70;;;;;;5015618;28;20052;-75
2021/08/31 02:48:59;;;;;;;20.10;13.85;;;16.20;94.60;;;;;;5014666;28;20073;-75
2021/08/31 02:51:25;;;;;;;19.75;11.85;;;16.10;94.60;;;;;;5016155;28;20517;-75
2021/08/31 02:53:50;;;;;;;21.08;12.55;;;16.20;94.60;;;;;;5016293;28;20034;-75
2021/08/31 02:56:16;;;;;;;20.05;11.90;;;16.10;94.90;;;;;;5015024;28;20034;-77
2021/08/31 02:58:42;;;;;;;22.08;13.80;;;16.10;94.60;;;;;;5031069;28;20025;-77
2021/08/31 03:03:52;;;;;;;19.63;12.18;;;16.10;94.60;;;;;;5015144;28;20052;-77
2021/08/31 03:06:17;;;;;;;26.65;13.30;;;16.10;94.60;;;;;;5016238;28;20022;-77
2021/08/31 03:08:44;;;;;;;19.95;11.88;;;16.10;94.90;;;;;;5014708;28;20030;-77
2021/08/31 03:11:10;;;;;;;23.10;12.13;;;16.10;94.60;;;;;;5015518;28;20056;-77
2021/08/31 03:13:35;;;;;;;21.75;12.10;;;16.00;94.60;;;;;;5015704;28;20502;-77
2021/08/31 03:16:01;;;;;;;25.35;12.52;;;16.10;94.70;;;;;;5001812;28;20042;-77
2021/08/31 03:18:26;;;;;;;19.85;12.25;;;16.10;94.80;;;;;;5007567;28;20395;-77
2021/08/31 03:20:52;;;;;;;20.17;11.55;;;16.10;94.70;;;;;;5014016;28;20026;-77
2021/08/31 03:23:18;;;;;;;22.08;12.45;;;16.10;95.00;;;;;;4997636;28;20124;-77
2021/08/31 03:25:43;;;;;;;20.13;11.48;;;16.10;94.70;;;;;;5020046;28;20377;-77
2021/08/31 03:28:09;;;;;;;19.05;11.40;;;16.10;94.70;;;;;;4998729;28;20121;-77
2021/08/31 03:30:35;;;;;;;20.50;12.45;;;16.10;94.70;;;;;;4994409;28;20114;-77
2021/08/31 03:33:00;;;;;;;19.25;11.55;;;16.10;94.70;;;;;;4995535;28;20027;-77
2021/08/31 03:35:26;;;;;;;18.38;11.05;;;16.10;94.70;;;;;;4995458;28;20022;-77
2021/08/31 03:37:51;;;;;;;23.30;11.43;;;16.20;94.80;;;;;;4995098;28;20042;-77
2021/08/31 03:40:17;;;;;;;19.05;10.63;;;16.20;94.80;;;;;;4995452;28;20117;-77
2021/08/31 03:42:43;;;;;;;19.30;10.65;;;16.20;94.80;;;;;;4995731;28;20023;-77
2021/08/31 03:45:09;;;;;;;19.30;10.98;;;16.30;94.80;;;;;;4994222;28;20080;-77
2021/08/31 03:47:35;;;;;;;19.02;10.80;;;16.30;94.80;;;;;;4995245;28;20033;-77
2021/08/31 03:50:01;;;;;;;16.67;10.60;;;16.20;94.80;;;;;;4995380;28;20035;-77
2021/08/31 03:52:27;;;;;;;18.27;10.57;;;16.30;94.80;;;;;;4993867;28;20027;-77
2021/08/31 03:54:52;;;;;;;21.98;11.00;;;16.30;94.80;;;;;;4995634;28;20034;-78
2021/08/31 03:57:18;;;;;;;15.05;9.55;;;16.30;94.80;;;;;;4994476;28;20030;-77
2021/08/31 03:59:43;;;;;;;20.92;10.00;;;16.40;94.80;;;;;;4994986;28;20130;-77
2021/08/31 04:02:09;;;;;;;17.45;9.50;;;16.40;94.70;;;;;;4994814;28;20026;-77
2021/08/31 04:04:35;;;;;;;20.45;10.18;;;16.40;94.70;;;;;;4993793;28;20118;-77
2021/08/31 04:07:00;;;;;;;21.83;10.43;;;16.40;95.00;;;;;;4993844;28;20050;-77
2021/08/31 04:09:26;;;;;;;14.57;9.30;;;16.40;94.60;;;;;;4995146;28;20501;-77
2021/08/31 04:11:52;;;;;;;16.92;9.38;;;16.40;94.60;;;;;;4994640;28;20164;-77
2021/08/31 04:14:17;;;;;;;15.35;9.20;;;16.40;94.60;;;;;;4994850;28;20040;-77
2021/08/31 04:16:43;;;;;;;17.90;10.15;;;16.40;94.60;;;;;;5010066;28;20034;-77
2021/08/31 04:19:09;;;;;;;17.92;9.13;;;16.40;94.60;;;;;;4994580;28;20133;-77
2021/08/31 04:21:35;;;;;;;18.98;9.57;;;16.40;94.60;;;;;;4994789;28;20038;-77
2021/08/31 04:24:01;;;;;;;22.63;10.75;;;16.40;94.60;;;;;;4993554;28;20034;-77
2021/08/31 04:26:27;;;;;;;20.13;9.95;;;16.40;94.60;;;;;;4994377;28;20085;-77
2021/08/31 04:28:52;;;;;;;20.10;9.75;;;16.40;94.60;;;;;;4994438;28;20109;-77
2021/08/31 04:31:18;;;;;;;18.60;9.32;;;16.40;94.70;;;;;;5009664;28;20092;-77
2021/08/31 04:33:44;;;;;;;15.10;8.85;;;16.40;94.70;;;;;;4993289;28;20033;-78
2021/08/31 04:36:11;;;;;;;15.95;8.02;;;16.40;94.60;;;;;;4993439;28;20124;-77
2021/08/31 04:38:36;;;;;;;17.08;9.32;;;16.40;94.60;;;;;;5009503;28;20058;-78
2021/08/31 04:41:02;;;;;;;21.90;9.40;;;16.40;94.60;;;;;;4994735;28;20058;-77
2021/08/31 04:43:28;;;;;;;24.42;8.73;;;16.40;94.60;;;;;;4994578;28;20473;-77
2021/08/31 04:45:53;;;;;;;17.90;7.60;;;16.40;94.60;;;;;;4977485;28;20033;-77
2021/08/31 04:48:19;;;;;;;16.35;7.82;;;16.40;94.60;;;;;;4993465;28;20023;-77
2021/08/31 04:50:45;;;;;;;18.75;8.13;;;16.50;94.70;;;;;;4993768;28;20042;-78
2021/08/31 04:53:10;;;;;;;20.98;8.63;;;16.50;94.70;;;;;;4976857;28;20034;-78
2021/08/31 04:55:36;;;;;;;22.33;7.50;;;16.50;94.70;;;;;;4992991;28;20058;-78
2021/08/31 04:58:02;;;;;;;18.65;8.35;;;16.50;94.60;;;;;;4976914;28;20467;-78
2021/08/31 05:00:28;;;;;;;17.75;8.82;;;16.50;94.60;;;;;;5009147;28;20034;-78
2021/08/31 05:02:55;;;;;;;18.27;8.18;;;16.50;94.60;;;;;;5009301;28;20126;-78
2021/08/31 05:05:22;;;;;;;14.93;7.70;;;16.60;94.60;;;;;;5009290;28;20073;-78
2021/08/31 05:07:48;;;;;;;13.57;6.95;;;16.60;94.60;;;;;;4994510;28;20022;-78
2021/08/31 05:10:14;;;;;;;13.65;7.32;;;16.60;94.50;;;;;;4992765;28;20590;-78
2021/08/31 05:12:40;;;;;;;16.88;7.63;;;16.60;94.50;;;;;;4994023;28;20035;-78
2021/08/31 05:15:06;;;;;;;15.00;7.28;;;16.60;94.40;;;;;;4993994;28;20030;-78
2021/08/31 05:17:33;;;;;;;17.67;6.70;;;16.60;94.40;;;;;;4994283;28;20050;-78
2021/08/31 05:19:58;;;;;;;20.70;7.50;;;16.60;94.40;;;;;;5008932;28;20034;-78
2021/08/31 05:22:26;;;;;;;17.25;7.57;;;16.60;94.40;;;;;;5004570;28;20113;-78
2021/08/31 05:24:53;;;;;;;14.40;6.50;;;16.60;94.40;;;;;;4996073;28;20022;-78
2021/08/31 05:27:19;;;;;;;15.85;7.47;;;16.70;94.40;;;;;;5011931;28;20034;-78
2021/08/31 05:29:44;;;;;;;15.15;6.57;;;16.70;94.30;;;;;;5015006;28;20092;-78
2021/08/31 05:32:10;;;;;;;15.82;7.20;;;16.60;94.30;;;;;;4996033;28;20381;-78
2021/08/31 05:34:35;;;;;;;16.17;7.53;;;16.70;94.40;;;;;;5019578;28;20034;-78
2021/08/31 05:37:01;;;;;;;20.02;6.57;;;16.70;94.30;;;;;;4994943;28;20035;-78
2021/08/31 05:39:32;;;;;;;14.13;7.10;;;16.70;94.30;;;;;;5026797;28;20421;-78
2021/08/31 05:42:02;;;;;;;15.13;5.93;;;16.70;94.30;;;;;;5011665;28;20145;-78
2021/08/31 05:44:28;;;;;;;16.77;7.53;;;16.70;94.30;;;;;;5011352;28;20022;-78
2021/08/31 05:46:53;;;;;;;14.35;6.22;;;16.80;94.20;;;;;;5009540;28;20019;-78
2021/08/31 05:49:19;;;;;;;14.77;6.32;;;16.80;94.20;;;;;;5014452;28;20037;-78
2021/08/31 05:51:44;;;;;;;25.63;7.40;;;16.80;94.20;;;;;;5011766;28;20044;-78
2021/08/31 05:54:10;;;;;;;15.30;6.13;;;16.80;94.10;;;;;;5012819;28;20144;-75
2021/08/31 05:56:36;;;;;;;13.30;6.07;;;16.70;94.10;;;;;;5011632;28;20155;-75
2021/08/31 05:59:01;;;;;;;17.48;6.28;;;16.80;94.10;;;;;;4979227;28;20037;-75
2021/08/31 06:01:27;;;;;;;13.25;6.00;;;16.80;94.10;;;;;;5014193;28;20029;-77
2021/08/31 06:03:52;;;;;;;14.07;5.60;;;16.90;94.30;;;;;;5016976;28;20034;-78
2021/08/31 06:06:18;;;;;;;13.30;5.68;;;16.90;94.00;;;;;;5014583;28;20586;-78
2021/08/31 06:08:44;;;;;;;15.07;7.05;;;16.90;94.00;;;;;;5017385;28;20348;-75
2021/08/31 06:11:10;;;;;;;14.65;7.38;;;16.90;93.90;;;;;;5015619;28;20050;-75
2021/08/31 06:13:36;;;;;;;12.57;5.95;;;17.00;93.90;;;;;;5016563;28;20052;-76
2021/08/31 06:16:02;;;;;;;17.23;7.30;;;17.00;93.90;;;;;;4998702;28;20026;-77
2021/08/31 06:18:27;;;;;;;20.90;6.20;;;17.00;93.80;;;;;;5014965;28;20383;-77
2021/08/31 06:20:53;;;;;;;11.30;6.22;;;17.00;93.80;;;;;;5015648;28;20537;-76
2021/08/31 06:23:19;;;;;;;20.45;6.43;;;17.10;93.80;;;;;;5015162;28;20112;-74
2021/08/31 06:25:44;;;;;;;15.93;5.65;;;17.10;93.80;;;;;;5015287;28;20034;-77
2021/08/31 06:28:10;;;;;;;15.82;6.05;;;17.10;93.70;;;;;;4998668;28;20022;-73
2021/08/31 06:30:35;;;;;;;14.60;6.18;;;17.10;93.60;;;;;;4995657;28;20054;-75
2021/08/31 06:33:01;;;;;;;15.65;6.68;;;17.20;93.60;;;;;;5016400;28;20501;-74
2021/08/31 06:35:27;;;;;;;16.83;6.38;;;17.20;93.60;;;;;;5016188;28;20387;-74
2021/08/31 06:37:52;;;;;;;20.42;6.15;;;17.20;93.50;;;;;;5016156;28;20037;-76
2021/08/31 06:40:18;;;;;;;16.60;6.10;;;17.30;93.40;;;;;;5014854;28;20034;-75
2021/08/31 06:42:43;;;;;;;13.10;5.85;;;17.30;93.40;;;;;;5016188;28;20470;-75
2021/08/31 06:45:09;;;;;;;18.02;6.40;;;17.30;93.40;;;;;;4996900;28;20046;-75
2021/08/31 06:47:35;;;;;;;15.25;6.60;;;17.30;93.30;;;;;;5016471;28;20109;-75
2021/08/31 06:50:01;;;;;;;14.43;5.70;;;17.30;93.30;;;;;;5016228;28;20093;-76
2021/08/31 06:52:26;;;;;;;17.58;6.30;;;17.30;93.10;;;;;;5014742;28;20040;-74
2021/08/31 06:54:52;;;;;;;12.52;5.72;;;17.40;92.90;;;;;;5014405;28;20034;-75
2021/08/31 06:57:17;;;;;;;12.20;5.53;;;17.40;92.90;;;;;;5014177;28;20037;-75
2021/08/31 06:59:43;;;;;;;15.07;6.20;;;17.40;92.90;;;;;;5003639;28;20030;-75
2021/08/31 07:02:09;;;;;;;13.23;5.68;;;17.40;92.80;;;;;;5015171;28;20483;-76
2021/08/31 07:04:34;;;;;;;11.23;5.53;;;17.50;93.10;;;;;;5014578;28;20029;-76
2021/08/31 07:07:00;;;;;;;15.70;6.30;;;17.60;92.80;;;;;;4998206;28;20030;-75
2021/08/31 07:09:25;;;;;;;14.48;5.82;;;17.60;92.80;;;;;;5014719;28;20116;-75
2021/08/31 07:11:51;;;;;;;14.75;6.57;;;17.60;93.00;;;;;;4981865;28;20069;-76
2021/08/31 07:14:17;;;;;;;14.65;6.22;;;17.60;92.70;;;;;;5014274;28;20041;-75
2021/08/31 07:16:42;;;;;;;15.68;5.90;;;17.70;92.60;;;;;;5015549;28;20068;-75
2021/08/31 07:19:09;;;;;;;12.00;5.65;;;17.70;92.70;;;;;;4981568;28;20050;-75
2021/08/31 07:21:35;;;;;;;12.82;5.18;;;17.70;92.60;;;;;;5014171;28;20478;-75
2021/08/31 07:24:01;;;;;;;16.30;6.05;;;17.80;92.70;;;;;;4997963;28;20034;-74
2021/08/31 07:26:26;;;;;;;14.20;5.45;;;17.90;92.60;;;;;;5015111;28;20029;-76
2021/08/31 07:28:52;;;;;;;10.63;5.53;;;17.90;92.50;;;;;;5015156;28;20022;-77
2021/08/31 07:31:19;;;;;;;14.02;6.05;;;17.90;92.40;;;;;;5015552;28;20033;-77
2021/08/31 07:33:44;;;;;;;12.90;5.63;;;17.90;92.30;;;;;;5014304;28;20030;-77
2021/08/31 07:36:10;;;;;;;10.48;5.00;;;18.00;92.20;;;;;;5010351;28;20034;-77
2021/08/31 07:38:36;;;;;;;18.75;6.20;;;18.00;92.40;;;;;;5010493;28;20026;-77
2021/08/31 07:41:02;;;;;;;16.85;6.43;;;18.00;92.40;;;;;;4978195;28;20040;-76
2021/08/31 07:43:27;;;;;;;13.95;6.22;;;18.00;92.00;;;;;;4996871;28;20034;-77
2021/08/31 07:45:53;;;;;;;12.27;5.35;;;18.00;92.00;;;;;;5014217;28;20462;-78
2021/08/31 07:48:19;;;;;;;14.98;5.88;;;18.00;92.00;;;;;;5013731;28;20037;-77
2021/08/31 07:50:45;;;;;;;12.82;5.45;;;18.10;91.90;;;;;;5000367;28;20113;-77
2021/08/31 07:53:10;;;;;;;13.55;5.68;;;18.00;91.90;;;;;;4995161;28;20062;-77
2021/08/31 07:55:36;;;;;;;15.93;5.47;;;18.10;91.90;;;;;;4994070;28;20062;-77
2021/08/31 07:58:02;;;;;;;12.40;5.15;;;18.10;91.90;;;;;;4995089;28;20035;-77
2021/08/31 08:00:27;;;;;;;12.80;5.82;;;18.20;91.90;;;;;;4993738;28;20089;-78
2021/08/31 08:02:53;;;;;;;12.00;5.47;;;18.30;91.90;;;;;;4995596;28;20181;-79
2021/08/31 08:05:19;;;;;;;13.15;5.30;;;18.40;91.70;;;;;;4993772;28;20045;-78
2021/08/31 08:07:44;;;;;;;9.15;4.35;;;18.50;91.60;;;;;;4995513;28;21057;-79
2021/08/31 08:10:10;;;;;;;16.52;5.22;;;18.50;91.40;;;;;;4993942;28;20022;-77
2021/08/31 08:12:36;;;;;;;8.07;4.05;;;18.70;91.40;;;;;;5010509;28;20034;-78
2021/08/31 08:15:03;;;;;;;12.73;5.45;;;18.80;91.20;;;;;;4994865;28;20033;-78
2021/08/31 08:17:28;;;;;;;13.75;6.10;;;18.90;91.00;;;;;;4994728;28;20046;-78
2021/08/31 08:19:54;;;;;;;10.93;5.25;;;18.90;90.70;;;;;;4993237;28;20041;-78
2021/08/31 08:22:20;;;;;;;13.25;5.40;;;18.90;90.50;;;;;;4994733;28;20038;-77
2021/08/31 08:24:45;;;;;;;14.27;5.53;;;19.00;90.50;;;;;;5009361;28;20557;-78
2021/08/31 08:27:11;;;;;;;11.57;5.22;;;18.90;90.50;;;;;;4994318;28;20113;-78
2021/08/31 08:29:38;;;;;;;10.20;4.30;;;18.90;90.40;;;;;;4994872;28;20489;-78
2021/08/31 08:32:08;;;;;;;8.60;4.32;;;19.00;90.40;;;;;;4995181;28;20081;-78
2021/08/31 08:34:35;;;;;;;10.68;4.32;;;19.10;90.20;;;;;;5014017;28;20097;-78
2021/08/31 08:37:02;;;;;;;10.60;3.88;;;19.10;89.80;;;;;;5013280;28;20030;-80
2021/08/31 08:39:28;;;;;;;11.88;4.57;;;19.20;89.50;;;;;;5012811;28;20497;-77
2021/08/31 08:41:54;;;;;;;13.05;4.20;;;19.30;89.30;;;;;;4996428;28;20060;-78
2021/08/31 08:44:20;;;;;;;9.00;3.53;;;19.40;88.50;;;;;;5012874;28;20389;-78
2021/08/31 08:46:47;;;;;;;10.77;3.65;;;19.40;88.10;;;;;;4997208;28;20036;-78
2021/08/31 08:49:14;;;;;;;12.38;3.70;;;19.40;87.60;;;;;;5012873;28;20030;-78
2021/08/31 08:51:40;;;;;;;9.30;3.55;;;19.50;87.50;;;;;;5014337;28;20347;-77
2021/08/31 08:54:07;;;;;;;8.02;3.60;;;19.50;87.20;;;;;;5012446;28;20028;-79
2021/08/31 08:56:34;;;;;;;9.63;3.70;;;19.60;86.90;;;;;;5013914;28;20022;-76
2021/08/31 08:58:59;;;;;;;10.38;4.13;;;19.70;86.60;;;;;;5013967;28;20022;-81
2021/08/31 09:01:43;;;;;;;10.40;3.88;;;19.70;86.50;;;;;;4996485;28;20431;-79
2021/08/31 09:04:09;;;;;;;;;;;19.90;86.00;;;;;;5014437;28;20469;-78
2021/08/31 09:06:35;;;;;;;9.20;3.70;;;19.90;85.70;;;;;;5014513;28;19996;-79
2021/08/31 09:09:05;;;;;;;9.75;3.83;;;20.10;85.70;;;;;;5013617;28;20034;-81
2021/08/31 09:11:31;;;;;;;8.35;3.55;;;20.20;84.80;;;;;;5014303;28;20057;-78
2021/08/31 09:14:36;;;;;;;8.48;3.03;;;20.30;84.60;;;;;;5012226;28;20478;-78
2021/08/31 09:17:03;;;;;;;;;;;20.40;84.20;;;;;;5002910;28;20041;-77
2021/08/31 09:19:40;;;;;;;7.97;3.50;;;20.50;83.60;;;;;;5013680;28;19917;-77
2021/08/31 09:22:22;;;;;;;13.00;3.50;;;20.50;83.20;;;;;;5012446;28;20030;-80
2021/08/31 09:24:58;;;;;;;8.43;3.08;;;20.60;82.50;;;;;;5012710;28;20077;-79
2021/08/31 09:27:40;;;;;;;10.10;3.70;;;20.60;82.40;;;;;;5013613;28;20026;-77
2021/08/31 09:30:29;;;;;;;8.25;3.08;;;20.70;81.90;;;;;;4994227;28;20054;-79
2021/08/31 09:33:08;;;;;;;7.05;3.25;;;20.70;81.20;;;;;;5008713;28;20367;-77
2021/08/31 09:35:45;;;;;;;7.47;2.70;;;20.70;80.80;;;;;;4994414;28;20033;-77
2021/08/31 09:38:16;;;;;;;11.57;3.35;;;20.70;80.70;;;;;;5012769;28;20553;-76
2021/08/31 09:40:44;;;;;;;7.78;3.13;;;20.70;80.00;;;;;;4997721;28;20050;-79
2021/08/31 09:43:16;;;;;;;9.38;3.08;;;20.80;79.50;;;;;;4997473;28;20117;-78
2021/08/31 09:45:43;;;;;;;9.95;3.45;;;20.90;79.20;;;;;;4997509;28;20390;-78
2021/08/31 09:48:12;;;;;;;9.45;3.17;;;20.80;78.50;;;;;;4999153;28;20018;-78
2021/08/31 09:50:49;;;;;;;8.35;3.63;;;20.80;78.20;;;;;;5017041;28;20127;-79
2021/08/31 09:53:22;;;;;;;10.55;3.10;;;20.80;78.80;;;;;;5017008;28;20026;-78
2021/08/31 09:56:01;;;;;;;10.77;3.28;;;20.90;78.80;;;;;;5015182;28;20394;-79
2021/08/31 09:58:28;;;;;;;9.90;3.30;;;21.10;77.90;;;;;;5032514;28;20057;-78
2021/08/31 10:00:54;;;;;;;9.23;3.35;;;21.10;77.30;;;;;;5016747;28;20466;-76
2021/08/31 10:03:22;;;;;;;6.78;3.05;;;21.10;76.40;;;;;;5015542;28;20018;-80
2021/08/31 10:05:50;;;;;;;12.18;3.40;;;21.20;76.60;;;;;;5016838;28;20033;-77
2021/08/31 10:08:17;;;;;;;6.97;3.33;;;21.30;75.90;;;;;;5016692;28;20026;-75
2021/08/31 10:10:46;;;;;;;7.75;3.75;;;21.40;75.10;;;;;;5016524;28;20037;-76
2021/08/31 10:13:16;;;;;;;6.60;3.25;;;21.40;75.00;;;;;;5016585;28;20022;-76
2021/08/31 10:15:47;;;;;;;8.73;3.65;;;21.50;74.30;;;;;;5015705;28;20112;-76
2021/08/31 10:18:19;;;;;;;7.07;3.20;;;21.60;74.00;;;;;;5015078;28;20072;-75
2021/08/31 10:20:51;;;;;;;8.65;2.97;;;22.00;73.90;;;;;;4996851;28;20037;-76
2021/08/31 10:23:23;;;;;;;6.88;3.00;;;22.50;73.80;;;;;;4996227;28;20019;-75
2021/08/31 10:25:48;;;;;;;9.27;3.47;;;22.60;71.30;;;;;;4996811;28;20057;-75
2021/08/31 10:28:25;;;;;;;6.57;2.72;;;22.70;71.10;;;;;;4996850;28;20023;-75
2021/08/31 10:30:52;;;;;;;11.70;3.13;;;23.00;70.70;;;;;;4996763;28;20568;-75
2021/08/31 10:33:39;;;;;;;8.02;3.25;;;23.10;69.90;;;;;;4996870;28;20037;-76
2021/08/31 10:36:08;;;;;;;6.90;2.85;;;23.40;69.50;;;;;;5004207;28;20030;-75
2021/08/31 10:38:52;;;;;;;7.88;2.75;;;23.80;69.50;;;;;;5016508;28;20029;-76
2021/08/31 10:41:34;;;;;;;;;;;24.30;67.80;;;;;;5010320;28;20053;-77
2021/08/31 10:44:00;;;;;;;9.55;2.92;;;24.70;67.10;;;;;;5015852;28;19921;-77
2021/08/31 10:46:26;;;;;;;10.27;3.65;;;25.20;66.10;;;;;;5015665;28;20394;-75
2021/08/31 10:49:03;;;;;;;7.70;2.63;;;25.50;64.80;;;;;;4998702;28;20088;-76
2021/08/31 10:51:29;;;;;;;5.22;2.20;;;26.00;64.30;;;;;;5014710;28;20375;-77
2021/08/31 10:53:55;;;;;;;5.38;2.25;;;26.70;64.50;;;;;;5015925;28;20041;-76
2021/08/31 10:56:23;;;;;;;5.60;2.40;;;27.30;62.80;;;;;;5012813;28;20443;-77
2021/08/31 10:58:51;;;;;;;9.43;2.47;;;28.00;61.70;;;;;;5010957;28;20475;-78
2021/08/31 11:01:19;;;;;;;6.82;2.42;;;28.70;59.90;;;;;;4994856;28;20418;-77
2021/08/31 11:03:46;;;;;;;6.03;2.13;;;28.60;55.80;;;;;;4994814;28;20030;-76
2021/08/31 11:06:37;;;;;;;8.32;3.05;;;28.20;54.80;;;;;;4994872;28;20037;-77
2021/08/31 11:09:13;;;;;;;5.25;2.35;;;27.70;54.10;;;;;;4994251;28;20553;-76
2021/08/31 11:11:44;;;;;;;8.23;2.70;;;27.40;55.00;;;;;;5003772;28;20034;-78
2021/08/31 11:14:11;;;;;;;7.15;2.63;;;27.60;55.00;;;;;;5014423;28;20025;-76
2021/08/31 11:16:37;;;;;;;7.65;3.50;;;27.60;53.60;;;;;;5020334;28;20066;-77
2021/08/31 11:19:24;;;;;;;7.68;2.47;;;27.30;52.40;;;;;;5030391;28;20038;-76
2021/08/31 11:21:52;;;;;;;6.20;2.63;;;26.80;52.90;;;;;;5014947;28;20026;-77
2021/08/31 11:24:18;;;;;;;7.18;2.58;;;26.80;54.10;;;;;;5014005;28;20076;-77
2021/08/31 11:26:44;;;;;;;5.80;2.22;;;27.30;54.30;;;;;;5015119;28;20053;-77
2021/08/31 11:29:12;;;;;;;7.78;2.42;;;27.90;53.90;;;;;;4997567;28;20498;-77
2021/08/31 11:31:38;;;;;;;4.88;2.10;;;28.60;53.60;;;;;;5009506;28;20501;-76
2021/08/31 11:34:10;;;;;;;7.55;2.20;;;28.70;52.40;;;;;;5030117;28;20482;-77
2021/08/31 11:36:38;;;;;;;5.07;2.20;;;28.60;51.20;;;;;;5014722;28;20034;-78
2021/08/31 11:39:06;;;;;;;5.55;2.13;;;28.50;51.60;;;;;;5014735;28;20025;-76
2021/08/31 11:41:43;;;;;;;5.55;2.10;;;28.80;51.70;;;;;;5014922;28;20189;-77
2021/08/31 11:44:12;;;;;;;7.00;2.15;;;29.60;51.10;;;;;;5014868;28;20037;-77
2021/08/31 11:46:54;;;;;;;7.22;2.55;;;30.30;51.20;;;;;;5013911;28;20037;-76
2021/08/31 11:49:25;;;;;;;4.88;2.25;;;30.80;48.90;;;;;;5015217;28;20444;-76
2021/08/31 11:52:01;;;;;;;7.40;2.63;;;30.70;48.00;;;;;;5013781;28;20490;-77
2021/08/31 11:54:29;;;;;;;9.18;3.83;;;30.30;48.00;;;;;;5013636;28;20481;-76
2021/08/31 11:57:01;;;;;;;7.57;3.25;;;30.20;47.90;;;;;;5013431;28;20022;-76
2021/08/31 11:59:37;;;;;;;7.18;2.47;;;30.20;47.50;;;;;;5012983;28;20382;-77
2021/08/31 12:02:23;;;;;;;5.07;2.47;;;30.60;47.60;;;;;;5011623;28;20030;-78
2021/08/31 12:04:57;;;;;;;5.65;2.50;;;31.10;46.80;;;;;;5013778;28;20036;-80
2021/08/31 12:07:26;;;;;;;6.78;3.05;;;31.30;46.80;;;;;;5014424;28;20809;-81
2021/08/31 12:10:03;;;;;;;7.28;2.55;;;31.50;46.60;;;;;;5014509;28;20049;-78
2021/08/31 12:12:29;;;;;;;5.80;2.88;;;31.80;45.80;;;;;;4997991;28;20033;-79
2021/08/31 12:14:55;;;;;;;6.05;2.70;;;32.20;45.30;;;;;;5013537;28;20074;-77
2021/08/31 12:17:43;;;;;;;6.70;3.13;;;32.50;44.30;;;;;;4997085;28;20431;-77
2021/08/31 12:20:18;;;;;;;7.72;2.90;;;32.80;43.10;;;;;;5013267;28;20053;-80
2021/08/31 12:22:47;;;;;;;6.72;2.25;;;33.10;43.60;;;;;;5014681;28;20075;-78
2021/08/31 12:25:13;;;;;;;6.50;2.38;;;33.50;43.50;;;;;;5013386;28;20041;-77
2021/08/31 12:27:50;;;;;;;5.35;2.35;;;33.50;43.10;;;;;;5013366;28;20482;-79
2021/08/31 12:30:18;;;;;;;6.75;2.50;;;33.20;42.60;;;;;;5014536;28;20030;-77
2021/08/31 12:32:53;;;;;;;6.30;2.45;;;32.60;42.60;;;;;;5014195;28;20057;-76
2021/08/31 12:35:39;;;;;;;6.97;2.58;;;32.40;43.50;;;;;;5014619;28;20034;-77
2021/08/31 12:38:19;;;;;;;6.00;2.40;;;32.40;43.00;;;;;;5012797;28;20050;-76
2021/08/31 12:41:03;;;;;;;8.32;2.90;;;32.40;42.60;;;;;;5029527;28;20386;-77
2021/08/31 12:43:30;;;;;;;5.78;2.58;;;32.60;42.50;;;;;;5029659;28;20109;-77